Moody, Missouri
Current Conditions -  °F | °C
As of 10:53 AM on Thursday 30 Oct 2014 (Local Time) from KUNO Reporting Station
Clear Clear  
Wind Chill: 55°   Ceiling: Unl
Heat Index: 55°   Visibility: 10mi
Dew Point: 35°   Wind: 5mph
Humidity: 47%   Direction: 160°SSE
Pressure: 30.14"   Gusts: NA
Location:  36.53°N, 91.99°W
Report Text: KUNO 301553Z AUTO 16004KT 10SM CLR 13/02 A3014 RMK AO2 SLP208 T01280017
Loading
Personal Weather Stations






























Interactive Weather Map
Tropical Storm Tracking
New forecast layout! Learn more

10-Day Weather Forecast

Advertisements
Track Severe Weather on mobile